Time;durP1;ratioP1;P1;durP2;ratioP2;P2;SDS_P1;SDS_P2;PMS_P1;PMS_P2;Temp;Humidity;BMP_temperature;BMP_pressure;BME280_temperature;BME280_humidity;BME280_pressure;Samples;Min_cycle;Max_cycle;Signal;HPM_P1;HPM_P2
2021/03/11 00:01:19;;;;;;;;;;;;;;;4.05;32.61;100683.19;4398470;32;33999;-88
2021/03/11 00:03:47;;;;;;;;;;;;;;;4.13;32.65;100678.97;4410790;32;31982;-88
2021/03/11 00:06:15;;;;;;;;;;;;;;;3.90;33.03;100677.00;4423579;32;34508;-88
2021/03/11 00:08:42;;;;;;;;;;;;;;;3.71;33.47;100687.94;4423511;32;33495;-88
2021/03/11 00:11:09;;;;;;;;;;;;;;;3.36;34.14;100685.78;4410973;32;34077;-88
2021/03/11 00:13:36;;;;;;;;;;;;;;;4.71;31.78;100694.13;4398153;32;32901;-88
2021/03/11 00:16:04;;;;;;;;;;;;;;;5.59;30.23;100691.25;4410520;32;33821;-88
2021/03/11 00:18:31;;;;;;;;;;;;;;;4.55;31.81;100684.50;4410548;32;33203;-88
2021/03/11 00:20:59;;;;;;;;;;;;;;;5.18;30.71;100685.88;4410445;32;34221;-87
2021/03/11 00:23:34;;;;;;;;;;;;;;;4.83;31.23;100676.16;4399839;32;33006;-87
2021/03/11 00:26:01;;;;;;;;;;;;;;;4.99;30.60;100677.13;4398130;32;32949;-88
2021/03/11 00:28:28;;;;;;;;;;;;;;;4.39;31.86;100678.34;4397888;32;33740;-88
2021/03/11 00:30:56;;;;;;;;;;;;;;;4.01;32.31;100679.69;4423328;32;34203;-87
2021/03/11 00:33:23;;;;;;;;;;;;;;;3.26;33.90;100677.06;4398194;32;31934;-87
2021/03/11 00:35:50;;;;;;;;;;;;;;;3.21;34.20;100676.12;4410660;32;33108;-87
2021/03/11 00:38:18;;;;;;;;;;;;;;;3.65;33.38;100668.97;4398085;32;33022;-88
2021/03/11 00:40:45;;;;;;;;;;;;;;;4.64;31.48;100672.56;4398096;32;33095;-88
2021/03/11 00:43:14;;;;;;;;;;;;;;;5.67;29.60;100672.31;4398040;32;33188;-88
2021/03/11 00:45:42;;;;;;;;;;;;;;;6.45;28.11;100665.66;4398084;32;34025;-88
2021/03/11 00:48:09;;;;;;;;;;;;;;;6.95;27.40;100668.22;4398040;32;33265;-88
2021/03/11 00:50:37;;;;;;;;;;;;;;;6.80;27.52;100664.78;4397610;32;32966;-88
2021/03/11 00:53:05;;;;;;;;;;;;;;;6.88;27.50;100662.19;4398237;32;33624;-88
2021/03/11 00:55:34;;;;;;;;;;;;;;;6.72;27.68;100657.91;4385578;32;33201;-87
2021/03/11 00:58:02;;;;;;;;;;;;;;;7.23;27.04;100661.25;4398009;32;33097;-88
2021/03/11 01:00:30;;;;;;;;;;;;;;;6.92;27.39;100658.75;4410486;32;32488;-88
2021/03/11 01:02:58;;;;;;;;;;;;;;;6.58;27.76;100653.59;4385711;32;32227;-89
2021/03/11 01:05:27;;;;;;;;;;;;;;;6.62;27.70;100652.72;4385433;32;33829;-88
2021/03/11 01:07:55;;;;;;;;;;;;;;;6.52;27.79;100654.44;4410512;32;33719;-88
2021/03/11 01:10:22;;;;;;;;;;;;;;;7.55;26.68;100651.66;4410414;32;33975;-87
2021/03/11 01:12:49;;;;;;;;;;;;;;;7.59;26.32;100651.66;4422863;32;33929;-88
2021/03/11 01:15:17;;;;;;;;;;;;;;;6.58;27.33;100647.53;4397657;32;34001;-88
2021/03/11 01:17:44;;;;;;;;;;;;;;;5.29;29.63;100644.59;4410222;32;35499;-88
2021/03/11 01:20:13;;;;;;;;;;;;;;;3.98;31.85;100657.31;4423331;32;34770;-87
2021/03/11 01:22:41;;;;;;;;;;;;;;;4.91;30.75;100652.97;4410659;32;32951;-87
2021/03/11 01:25:10;;;;;;;;;;;;;;;5.56;29.44;100655.03;4398139;32;33223;-88
2021/03/11 01:27:37;;;;;;;;;;;;;;;6.61;28.11;100661.34;4423245;32;34180;-88
2021/03/11 01:30:08;;;;;;;;;;;;;;;7.23;27.07;100653.50;4410298;32;34910;-87
2021/03/11 01:32:35;;;;;;;;;;;;;;;6.89;27.45;100647.50;4422959;32;33793;-88
2021/03/11 01:35:03;;;;;;;;;;;;;;;6.07;28.44;100642.31;4410275;32;34308;-88
2021/03/11 01:37:30;;;;;;;;;;;;;;;4.72;30.97;100635.59;4397945;32;33008;-88
2021/03/11 01:39:57;;;;;;;;;;;;;;;3.80;32.34;100639.06;4397522;32;33157;-88
2021/03/11 01:42:28;;;;;;;;;;;;;;;4.43;31.42;100642.28;4410579;32;32101;-88
2021/03/11 01:44:55;;;;;;;;;;;;;;;6.06;28.47;100638.00;4423022;32;34173;-88
2021/03/11 01:47:22;;;;;;;;;;;;;;;6.21;28.25;100647.50;4409806;32;33132;-88
2021/03/11 01:49:51;;;;;;;;;;;;;;;5.69;29.05;100631.84;4422852;32;33970;-87
2021/03/11 01:52:19;;;;;;;;;;;;;;;5.19;29.78;100628.16;4397809;32;32142;-88
2021/03/11 01:54:46;;;;;;;;;;;;;;;3.41;33.56;100632.59;4397228;32;34163;-88
2021/03/11 01:57:14;;;;;;;;;;;;;;;4.90;31.11;100635.75;4409860;32;33139;-88
2021/03/11 01:59:49;;;;;;;;;;;;;;;5.68;29.26;100643.03;4423484;32;34349;-87
2021/03/11 02:02:17;;;;;;;;;;;;;;;6.11;28.49;100638.88;4399174;32;32206;-87
2021/03/11 02:04:45;;;;;;;;;;;;;;;5.37;29.31;100641.19;4416272;32;34104;-87
2021/03/11 02:07:12;;;;;;;;;;;;;;;6.06;28.44;100636.25;4410817;32;34708;-88
2021/03/11 02:09:39;;;;;;;;;;;;;;;5.33;29.57;100638.59;4420965;32;33539;-88
2021/03/11 02:12:16;;;;;;;;;;;;;;;5.80;29.19;100639.63;4412161;32;32229;-88
2021/03/11 02:14:47;;;;;;;;;;;;;;;6.64;27.40;100643.22;4398861;32;33066;-88
2021/03/11 02:17:14;;;;;;;;;;;;;;;6.30;28.02;100632.00;4424158;32;33032;-88
2021/03/11 02:19:46;;;;;;;;;;;;;;;6.59;27.66;100620.78;4411668;32;34953;-87
2021/03/11 02:22:20;;;;;;;;;;;;;;;3.54;32.43;100623.28;4411944;32;34281;-88
2021/03/11 02:25:07;;;;;;;;;;;;;;;3.27;33.49;100625.56;4423935;32;33897;-88
2021/03/11 02:27:40;;;;;;;;;;;;;;;3.46;33.14;100629.22;4399009;32;33545;-88
2021/03/11 02:30:08;;;;;;;;;;;;;;;4.60;30.72;100623.47;4400751;32;32803;-88
2021/03/11 02:32:35;;;;;;;;;;;;;;;4.48;30.97;100631.97;4402217;32;31904;-87
2021/03/11 02:35:03;;;;;;;;;;;;;;;3.09;33.59;100631.31;4414785;32;33808;-88
2021/03/11 02:37:35;;;;;;;;;;;;;;;3.57;33.07;100634.50;4425774;32;33103;-87
2021/03/11 02:40:05;;;;;;;;;;;;;;;4.49;31.51;100628.56;4424733;32;34555;-87
2021/03/11 02:42:33;;;;;;;;;;;;;;;5.00;30.33;100623.78;4424407;32;32958;-88
2021/03/11 02:45:02;;;;;;;;;;;;;;;5.64;29.09;100610.28;4398755;32;34384;-89
2021/03/11 02:47:29;;;;;;;;;;;;;;;5.63;29.19;100618.88;4411169;32;32932;-88
2021/03/11 02:49:57;;;;;;;;;;;;;;;5.72;28.88;100610.28;4411263;32;33262;-88
2021/03/11 02:52:24;;;;;;;;;;;;;;;6.47;27.85;100598.34;4411554;32;33284;-87
2021/03/11 02:54:52;;;;;;;;;;;;;;;5.58;28.81;100605.06;4398867;32;32921;-88
2021/03/11 02:57:19;;;;;;;;;;;;;;;5.40;29.31;100612.75;4398901;32;33078;-88
2021/03/11 02:59:46;;;;;;;;;;;;;;;5.93;28.43;100619.84;4398797;32;33879;-88
2021/03/11 03:02:15;;;;;;;;;;;;;;;4.87;30.16;100607.31;4411784;32;33852;-88
2021/03/11 03:04:46;;;;;;;;;;;;;;;4.61;30.43;100613.16;4411880;32;35521;-88
2021/03/11 03:07:15;;;;;;;;;;;;;;;5.19;29.70;100611.81;4411251;32;33974;-87
2021/03/11 03:09:43;;;;;;;;;;;;;;;5.05;30.13;100606.56;4398830;32;33156;-87
2021/03/11 03:12:11;;;;;;;;;;;;;;;5.20;29.79;100605.78;4398500;32;32376;-88
2021/03/11 03:14:39;;;;;;;;;;;;;;;5.21;29.90;100614.41;4398581;32;33948;-88
2021/03/11 03:17:06;;;;;;;;;;;;;;;5.79;28.86;100613.75;4398469;32;33145;-89
2021/03/11 03:19:35;;;;;;;;;;;;;;;4.76;30.74;100617.59;4398768;32;33569;-88
2021/03/11 03:22:03;;;;;;;;;;;;;;;4.38;31.22;100610.41;4411067;32;32602;-88
2021/03/11 03:24:30;;;;;;;;;;;;;;;4.22;31.90;100605.97;4398382;32;33057;-88
2021/03/11 03:26:57;;;;;;;;;;;;;;;4.20;31.85;100615.41;4411029;32;33850;-88
2021/03/11 03:29:25;;;;;;;;;;;;;;;4.78;30.53;100620.19;4411026;32;33881;-88
2021/03/11 03:31:52;;;;;;;;;;;;;;;5.19;29.84;100614.41;4410903;32;32066;-87
2021/03/11 03:34:19;;;;;;;;;;;;;;;5.77;28.75;100610.28;4398605;32;33087;-88
2021/03/11 03:36:47;;;;;;;;;;;;;;;5.43;28.78;100608.47;4410919;32;34090;-88
2021/03/11 03:39:14;;;;;;;;;;;;;;;5.38;29.39;100604.16;4398387;32;32894;-88
2021/03/11 03:41:44;;;;;;;;;;;;;;;3.48;32.13;100600.91;4398150;32;32496;-87
2021/03/11 03:44:12;;;;;;;;;;;;;;;4.22;31.42;100605.97;4398402;32;33004;-88
2021/03/11 03:46:39;;;;;;;;;;;;;;;5.27;29.61;100604.09;4410970;32;33006;-87
2021/03/11 03:49:08;;;;;;;;;;;;;;;4.96;29.72;100603.91;4398446;32;33509;-88
2021/03/11 03:51:36;;;;;;;;;;;;;;;4.53;30.64;100612.25;4412745;32;33002;-88
2021/03/11 03:54:04;;;;;;;;;;;;;;;4.95;29.92;100612.53;4412234;32;32724;-87
2021/03/11 03:56:35;;;;;;;;;;;;;;;5.32;29.44;100603.25;4412402;32;33108;-88
2021/03/11 03:59:11;;;;;;;;;;;;;;;4.94;29.90;100609.06;4400574;32;34594;-87
2021/03/11 04:01:39;;;;;;;;;;;;;;;4.80;30.28;100614.16;4425663;32;33403;-88
2021/03/11 04:04:07;;;;;;;;;;;;;;;4.70;29.00;100614.09;4401035;32;32524;-87
2021/03/11 04:06:36;;;;;;;;;;;;;;;5.29;28.14;100611.00;4399093;32;33264;-88
2021/03/11 04:09:05;;;;;;;;;;;;;;;4.22;29.83;100617.16;4398528;32;32994;-88
2021/03/11 04:11:33;;;;;;;;;;;;;;;4.14;30.18;100622.22;4398376;32;33006;-88
2021/03/11 04:14:04;;;;;;;;;;;;;;;3.37;31.81;100621.38;4411031;32;33531;-88
2021/03/11 04:16:32;;;;;;;;;;;;;;;4.28;30.53;100630.13;4398335;32;34620;-88
2021/03/11 04:19:00;;;;;;;;;;;;;;;4.63;29.95;100624.38;4398028;32;33126;-88
2021/03/11 04:21:28;;;;;;;;;;;;;;;4.57;30.27;100623.47;4398260;32;32047;-88
2021/03/11 04:23:56;;;;;;;;;;;;;;;4.30;30.95;100632.69;4409968;32;32923;-88
2021/03/11 04:26:28;;;;;;;;;;;;;;;4.31;30.73;100630.13;4410861;32;33999;-88
2021/03/11 04:28:56;;;;;;;;;;;;;;;4.22;31.07;100636.94;4410733;32;34558;-88
2021/03/11 04:31:23;;;;;;;;;;;;;;;4.06;31.46;100626.44;4397628;32;32202;-88
2021/03/11 04:33:51;;;;;;;;;;;;;;;4.41;30.72;100625.91;4398028;32;32921;-88
2021/03/11 04:36:18;;;;;;;;;;;;;;;4.60;30.34;100626.94;4398269;32;33203;-88
2021/03/11 04:38:45;;;;;;;;;;;;;;;4.75;30.26;100626.19;4410413;32;33008;-88
2021/03/11 04:41:13;;;;;;;;;;;;;;;4.72;30.43;100623.59;4423401;32;33949;-88
2021/03/11 04:43:40;;;;;;;;;;;;;;;4.04;31.46;100617.81;4398142;32;33136;-87
2021/03/11 04:46:07;;;;;;;;;;;;;;;3.81;31.75;100620.19;4411176;32;33839;-88
2021/03/11 04:48:36;;;;;;;;;;;;;;;4.40;30.96;100616.47;4410713;32;32860;-88
2021/03/11 04:51:04;;;;;;;;;;;;;;;4.63;30.63;100606.31;4398397;32;32243;-88
2021/03/11 04:53:31;;;;;;;;;;;;;;;4.23;31.17;100616.31;4398107;32;32840;-88
2021/03/11 04:55:59;;;;;;;;;;;;;;;3.91;31.22;100615.97;4398051;32;32911;-87
2021/03/11 04:58:28;;;;;;;;;;;;;;;4.55;30.15;100622.56;4397649;32;34066;-88
2021/03/11 05:00:56;;;;;;;;;;;;;;;4.14;30.38;100619.66;4410744;32;33788;-88
2021/03/11 05:03:23;;;;;;;;;;;;;;;4.09;30.59;100620.47;4398256;32;32978;-87
2021/03/11 05:05:50;;;;;;;;;;;;;;;4.01;30.80;100616.09;4367488;32;885210;-88
2021/03/11 05:08:17;;;;;;;;;;;;;;;4.21;30.57;100619.72;4402120;32;34064;-88
2021/03/11 05:10:45;;;;;;;;;;;;;;;4.39;30.27;100609.56;4399109;32;32113;-88
2021/03/11 05:13:12;;;;;;;;;;;;;;;4.21;30.60;100605.09;4412012;32;33924;-87
2021/03/11 05:15:40;;;;;;;;;;;;;;;4.08;30.81;100613.56;4398710;32;33797;-88
2021/03/11 05:18:08;;;;;;;;;;;;;;;3.68;32.11;100614.00;4410592;32;32822;-87
2021/03/11 05:20:35;;;;;;;;;;;;;;;3.93;31.97;100609.97;4398229;32;32241;-88
2021/03/11 05:23:05;;;;;;;;;;;;;;;3.83;32.48;100619.34;4398604;32;32857;-87
2021/03/11 05:25:33;;;;;;;;;;;;;;;4.25;31.55;100624.91;4410807;32;33799;-87
2021/03/11 05:28:00;;;;;;;;;;;;;;;4.54;31.01;100616.56;4423190;32;33507;-87
2021/03/11 05:30:27;;;;;;;;;;;;;;;4.32;31.21;100623.25;4398068;32;32022;-87
2021/03/11 05:32:55;;;;;;;;;;;;;;;4.50;30.74;100607.91;4411297;32;34616;-87
2021/03/11 05:35:23;;;;;;;;;;;;;;;4.42;31.18;100613.87;4399080;32;33740;-85
2021/03/11 05:37:50;;;;;;;;;;;;;;;4.28;31.36;100613.75;4404000;32;33069;-86
2021/03/11 05:40:19;;;;;;;;;;;;;;;4.65;31.07;100626.97;4429716;32;33220;-88
2021/03/11 05:42:45;;;;;;;;;;;;;;;4.79;30.85;100634.81;4411109;32;34871;-87
2021/03/11 05:45:13;;;;;;;;;;;;;;;4.43;31.43;100633.69;4410408;32;34182;-87
2021/03/11 05:47:42;;;;;;;;;;;;;;;5.17;30.38;100629.00;4422957;32;33701;-87
2021/03/11 05:50:10;;;;;;;;;;;;;;;5.03;30.70;100625.50;4397933;32;33150;-88
2021/03/11 05:52:37;;;;;;;;;;;;;;;5.18;30.44;100639.38;4410352;32;33637;-87
2021/03/11 05:55:07;;;;;;;;;;;;;;;5.33;30.27;100632.53;4397902;32;34425;-88
2021/03/11 05:57:41;;;;;;;;;;;;;;;5.07;30.39;100624.66;4398924;32;33854;-87
2021/03/11 06:00:10;;;;;;;;;;;;;;;4.96;30.67;100619.41;4422612;32;33114;-87
2021/03/11 06:02:39;;;;;;;;;;;;;;;5.40;30.06;100625.66;4397632;32;33398;-87
2021/03/11 06:05:06;;;;;;;;;;;;;;;5.41;30.42;100622.25;4397563;32;33045;-87
2021/03/11 06:07:34;;;;;;;;;;;;;;;5.72;29.96;100624.94;4422933;32;33936;-87
2021/03/11 06:10:05;;;;;;;;;;;;;;;5.52;30.40;100626.59;4409854;32;33778;-90
2021/03/11 06:12:32;;;;;;;;;;;;;;;5.37;30.72;100625.66;4397068;32;33097;-87
2021/03/11 06:15:05;;;;;;;;;;;;;;;6.15;29.60;100622.50;4397596;32;34295;-87
2021/03/11 06:17:32;;;;;;;;;;;;;;;6.24;29.50;100632.00;4396313;32;33164;-87
2021/03/11 06:20:01;;;;;;;;;;;;;;;6.48;29.04;100626.81;4396974;32;32191;-87
2021/03/11 06:22:28;;;;;;;;;;;;;;;5.48;30.91;100635.19;4422679;32;34126;-86
2021/03/11 06:24:55;;;;;;;;;;;;;;;5.75;30.46;100638.75;4422363;32;33481;-87
2021/03/11 06:27:23;;;;;;;;;;;;;;;5.80;30.43;100629.28;4409377;32;34565;-87
2021/03/11 06:29:50;;;;;;;;;;;;;;;5.02;32.29;100619.47;4396899;32;32557;-89
2021/03/11 06:32:18;;;;;;;;;;;;;;;6.37;30.23;100619.91;4397977;32;33727;-89
2021/03/11 06:34:45;;;;;;;;;;;;;;;6.75;29.65;100622.47;4400795;32;34219;-91
2021/03/11 06:37:14;;;;;;;;;;;;;;;6.91;29.66;100633.69;4412582;32;35102;-88
2021/03/11 06:39:42;;;;;;;;;;;;;;;7.62;28.40;100630.91;4409798;32;32996;-89
2021/03/11 06:42:10;;;;;;;;;;;;;;;7.19;28.86;100626.75;4408780;32;33932;-88
2021/03/11 06:44:42;;;;;;;;;;;;;;;7.53;28.48;100638.72;4407395;32;33512;-89
2021/03/11 06:47:10;;;;;;;;;;;;;;;8.16;27.74;100642.69;4389219;32;33127;-89
2021/03/11 06:49:57;;;;;;;;;;;;;;;8.21;27.71;100647.88;4412139;32;32429;-88
2021/03/11 06:52:24;;;;;;;;;;;;;;;8.68;26.87;100647.53;4424061;32;33205;-89
2021/03/11 06:54:58;;;;;;;;;;;;;;;8.81;26.85;100642.22;4412181;32;33918;-89
2021/03/11 06:57:36;;;;;;;;;;;;;;;8.60;27.41;100643.28;4424582;32;32805;-89
2021/03/11 07:00:03;;;;;;;;;;;;;;;9.04;27.22;100636.81;4424777;32;33203;-89
2021/03/11 07:02:30;;;;;;;;;;;;;;;9.61;26.29;100643.09;4438066;32;34824;-88
2021/03/11 07:05:12;;;;;;;;;;;;;;;9.77;25.98;100646.38;4402677;32;32933;-88
2021/03/11 07:07:40;;;;;;;;;;;;;;;9.76;25.87;100640.31;4427547;32;34042;-90
2021/03/11 07:10:12;;;;;;;;;;;;;;;9.59;26.44;100637.06;4402543;32;33088;-90
2021/03/11 07:12:50;;;;;;;;;;;;;;;9.44;26.64;100645.91;4411740;32;32707;-89
2021/03/11 07:15:19;;;;;;;;;;;;;;;10.03;25.86;100643.41;4411665;32;35257;-88
2021/03/11 07:17:46;;;;;;;;;;;;;;;9.02;26.01;100641.16;4410734;32;33069;-89
2021/03/11 07:20:14;;;;;;;;;;;;;;;9.30;25.81;100654.72;4398782;32;32268;-89
2021/03/11 07:23:00;;;;;;;;;;;;;;;8.86;25.93;100664.69;4399506;32;33002;-89
2021/03/11 07:25:37;;;;;;;;;;;;;;;8.19;27.21;100666.06;4411525;32;34964;-89
2021/03/11 07:28:06;;;;;;;;;;;;;;;9.07;25.88;100662.78;4411017;32;32970;-89
2021/03/11 07:30:52;;;;;;;;;;;;;;;8.67;26.54;100664.00;4399401;32;33006;-91
2021/03/11 07:33:21;;;;;;;;;;;;;;;8.73;26.61;100662.22;4412190;32;32646;-91
2021/03/11 07:35:49;;;;;;;;;;;;;;;8.73;26.46;100659.62;4399793;32;33100;-90
2021/03/11 07:38:22;;;;;;;;;;;;;;;10.20;24.64;100651.00;4398377;32;33019;-90
2021/03/11 07:40:53;;;;;;;;;;;;;;;9.16;25.85;100646.22;4411212;32;32966;-89
2021/03/11 07:43:21;;;;;;;;;;;;;;;8.91;25.84;100648.19;4398967;32;32838;-90
2021/03/11 07:45:48;;;;;;;;;;;;;;;9.05;25.57;100650.69;4411716;32;33647;-90
2021/03/11 07:48:16;;;;;;;;;;;;;;;9.10;25.77;100648.88;4398041;32;32837;-90
2021/03/11 07:50:44;;;;;;;;;;;;;;;9.93;24.69;100650.50;4396944;32;31611;-91
2021/03/11 07:53:12;;;;;;;;;;;;;;;9.34;25.61;100650.34;4398640;32;34102;-90
2021/03/11 07:55:41;;;;;;;;;;;;;;;8.43;26.98;100657.25;4411848;32;34474;-90
2021/03/11 07:58:10;;;;;;;;;;;;;;;8.64;26.81;100651.06;4400192;32;33845;-90
2021/03/11 08:00:38;;;;;;;;;;;;;;;9.26;26.02;100647.00;4399149;32;32923;-91
2021/03/11 08:03:15;;;;;;;;;;;;;;;8.96;26.36;100642.09;4414062;32;34114;-90
2021/03/11 08:05:43;;;;;;;;;;;;;;;8.66;26.97;100648.44;4412973;32;34380;-91
2021/03/11 08:08:14;;;;;;;;;;;;;;;7.89;28.52;100643.75;4402118;32;33127;-90
2021/03/11 08:10:56;;;;;;;;;;;;;;;9.43;26.46;100647.66;4412113;32;32592;-90
2021/03/11 08:13:31;;;;;;;;;;;;;;;8.86;27.10;100643.06;4409443;32;33122;-90
2021/03/11 08:16:00;;;;;;;;;;;;;;;9.98;25.45;100640.87;4396141;32;33454;-90
2021/03/11 08:18:35;;;;;;;;;;;;;;;9.05;26.99;100641.13;4396145;32;34339;-90
2021/03/11 08:21:04;;;;;;;;;;;;;;;8.48;27.84;100631.25;4407607;32;33461;-90
2021/03/11 08:23:33;;;;;;;;;;;;;;;8.64;27.90;100627.66;4408506;32;34168;-90
2021/03/11 08:26:01;;;;;;;;;;;;;;;9.60;26.46;100639.66;4408465;32;33764;-89
2021/03/11 08:28:28;;;;;;;;;;;;;;;9.50;26.62;100636.28;4395525;32;32923;-88
2021/03/11 08:30:57;;;;;;;;;;;;;;;10.00;25.90;100633.06;4407854;32;34091;-91
2021/03/11 08:33:25;;;;;;;;;;;;;;;10.62;25.32;100626.91;4395601;32;32566;-90
2021/03/11 08:35:55;;;;;;;;;;;;;;;9.57;26.39;100626.66;4408871;32;32768;-90
2021/03/11 08:38:23;;;;;;;;;;;;;;;9.28;27.05;100627.88;4395660;32;32827;-90
2021/03/11 08:40:54;;;;;;;;;;;;;;;8.96;27.91;100626.50;4422818;32;33175;-90
2021/03/11 08:43:41;;;;;;;;;;;;;;;9.73;26.49;100605.66;4383552;32;32528;-91
2021/03/11 08:46:12;;;;;;;;;;;;;;;9.54;27.00;100618.91;4408547;32;33108;-90
2021/03/11 08:48:44;;;;;;;;;;;;;;;9.91;26.45;100613.22;4408359;32;34001;-90
2021/03/11 08:51:17;;;;;;;;;;;;;;;10.32;25.54;100600.47;4395914;32;33315;-90
2021/03/11 08:53:47;;;;;;;;;;;;;;;10.79;24.98;100606.63;4408723;32;32907;-89
2021/03/11 08:56:18;;;;;;;;;;;;;;;10.79;25.00;100601.41;4395351;32;33150;-90
2021/03/11 08:58:54;;;;;;;;;;;;;;;10.64;24.75;100605.16;4408209;32;33227;-90
2021/03/11 09:01:27;;;;;;;;;;;;;;;11.10;23.98;100597.38;4408036;32;33461;-90
2021/03/11 09:03:56;;;;;;;;;;;;;;;10.12;25.37;100592.97;4408598;32;34675;-90
2021/03/11 09:06:42;;;;;;;;;;;;;;;10.85;24.51;100593.47;4408654;32;33839;-91
2021/03/11 09:09:11;;;;;;;;;;;;;;;10.86;24.51;100591.72;4409667;32;33988;-88
2021/03/11 09:11:39;;;;;;;;;;;;;;;11.66;23.34;100581.41;4397857;32;32186;-90
2021/03/11 09:14:09;;;;;;;;;;;;;;;11.36;23.61;100579.44;4393649;32;32907;-90
2021/03/11 09:16:37;;;;;;;;;;;;;;;11.73;23.34;100569.13;4394120;32;33248;-89
2021/03/11 09:19:05;;;;;;;;;;;;;;;11.30;23.64;100566.53;4418982;32;34036;-88
2021/03/11 09:21:33;;;;;;;;;;;;;;;11.34;23.65;100569.91;4436501;32;33266;-89
2021/03/11 09:24:02;;;;;;;;;;;;;;;11.30;23.86;100561.31;4406404;32;34092;-88
2021/03/11 09:26:31;;;;;;;;;;;;;;;11.30;23.74;100558.72;4396960;32;33318;-89
2021/03/11 09:28:58;;;;;;;;;;;;;;;12.54;22.57;100550.62;4416021;32;34073;-90
2021/03/11 09:31:29;;;;;;;;;;;;;;;11.16;23.90;100556.38;4420765;32;33233;-89
2021/03/11 09:33:57;;;;;;;;;;;;;;;11.73;23.19;100553.44;4430240;32;35462;-89
2021/03/11 09:36:25;;;;;;;;;;;;;;;11.86;23.02;100560.09;4410053;32;32965;-89
2021/03/11 09:38:58;;;;;;;;;;;;;;;12.05;22.93;100567.53;4405113;32;34769;-89
2021/03/11 09:41:28;;;;;;;;;;;;;;;12.39;22.53;100561.47;4410489;32;33585;-89
2021/03/11 09:43:55;;;;;;;;;;;;;;;12.40;22.70;100557.97;4397405;32;34218;-88
2021/03/11 09:46:23;;;;;;;;;;;;;;;13.05;21.65;100556.25;4394860;32;33256;-89
2021/03/11 09:48:51;;;;;;;;;;;;;;;12.34;22.27;100552.00;4404163;32;33084;-90
2021/03/11 09:51:26;;;;;;;;;;;;;;;13.86;20.59;100545.13;4422618;32;34205;-89
2021/03/11 09:54:01;;;;;;;;;;;;;;;12.70;21.96;100551.94;4409260;32;34062;-89
2021/03/11 09:56:28;;;;;;;;;;;;;;;13.56;21.29;100542.59;4394679;32;33077;-89
2021/03/11 09:58:57;;;;;;;;;;;;;;;13.11;21.74;100545.59;4407123;32;34006;-88
2021/03/11 10:01:32;;;;;;;;;;;;;;;13.23;21.59;100534.78;4406974;32;31960;-89
2021/03/11 10:04:17;;;;;;;;;;;;;;;13.86;21.00;100529.41;4407404;32;32943;-89
2021/03/11 10:07:05;;;;;;;;;;;;;;;14.13;20.67;100517.19;4421905;32;34205;-88
2021/03/11 10:09:39;;;;;;;;;;;;;;;14.22;20.56;100518.63;4408719;32;34669;-91
2021/03/11 10:12:06;;;;;;;;;;;;;;;14.14;20.26;100511.03;4409476;32;32489;-89
2021/03/11 10:14:34;;;;;;;;;;;;;;;13.38;21.99;100509.09;4396153;32;33199;-89
2021/03/11 10:17:02;;;;;;;;;;;;;;;13.24;22.30;100509.47;4421578;32;33078;-89
2021/03/11 10:19:31;;;;;;;;;;;;;;;13.30;22.10;100496.22;4413915;32;34205;-89
2021/03/11 10:21:58;;;;;;;;;;;;;;;13.67;21.90;100495.97;4401739;32;31745;-89
2021/03/11 10:24:32;;;;;;;;;;;;;;;13.24;22.38;100484.16;4420327;32;33679;-90
2021/03/11 10:27:00;;;;;;;;;;;;;;;13.65;21.79;100474.22;4426401;32;33516;-89
2021/03/11 10:29:31;;;;;;;;;;;;;;;14.21;21.01;100482.84;4423840;32;33590;-89
2021/03/11 10:32:03;;;;;;;;;;;;;;;14.84;20.25;100488.53;4406460;32;32408;-88
2021/03/11 10:34:43;;;;;;;;;;;;;;;14.18;20.49;100475.94;4411175;32;32546;-88
2021/03/11 10:37:13;;;;;;;;;;;;;;;14.43;20.39;100479.50;4411374;32;34051;-88
2021/03/11 10:39:54;;;;;;;;;;;;;;;14.06;20.68;100475.53;4395446;32;33194;-89
2021/03/11 10:42:22;;;;;;;;;;;;;;;13.98;20.99;100478.38;4396405;32;33481;-91
2021/03/11 10:44:53;;;;;;;;;;;;;;;12.81;21.53;100472.34;4416754;32;34184;-89
2021/03/11 10:47:21;;;;;;;;;;;;;;;13.35;21.09;100452.44;4406555;32;33593;-89
2021/03/11 10:49:48;;;;;;;;;;;;;;;13.25;21.50;100466.72;4407387;32;32689;-90
2021/03/11 10:52:17;;;;;;;;;;;;;;;12.91;21.73;100471.19;4411177;32;32902;-89
2021/03/11 10:54:45;;;;;;;;;;;;;;;12.61;22.12;100458.06;4395451;32;32784;-89
2021/03/11 10:57:13;;;;;;;;;;;;;;;11.59;23.30;100459.78;4411218;32;33633;-89
2021/03/11 10:59:46;;;;;;;;;;;;;;;12.73;22.38;100462.09;4411747;32;35597;-88
2021/03/11 11:02:14;;;;;;;;;;;;;;;12.25;22.93;100445.09;4422824;32;31767;-90
2021/03/11 11:04:42;;;;;;;;;;;;;;;11.48;23.84;100429.56;4411873;32;34404;-89
2021/03/11 11:07:09;;;;;;;;;;;;;;;12.61;22.46;100423.25;4413875;32;34000;-89
2021/03/11 11:09:39;;;;;;;;;;;;;;;13.32;21.63;100415.88;4428320;32;34680;-88
2021/03/11 11:12:12;;;;;;;;;;;;;;;13.01;21.79;100404.59;4406464;32;32509;-89
2021/03/11 11:14:39;;;;;;;;;;;;;;;13.31;21.46;100403.72;4411868;32;33228;-89
2021/03/11 11:17:08;;;;;;;;;;;;;;;12.07;23.06;100391.59;4411242;32;33934;-89
2021/03/11 11:19:35;;;;;;;;;;;;;;;12.75;22.32;100397.56;4423799;32;32994;-89
2021/03/11 11:22:03;;;;;;;;;;;;;;;12.95;21.92;100389.13;4411234;32;33326;-89
2021/03/11 11:24:31;;;;;;;;;;;;;;;13.57;21.38;100376.72;4421670;32;32975;-90
2021/03/11 11:26:59;;;;;;;;;;;;;;;12.23;22.91;100381.59;4386261;32;33100;-90
2021/03/11 11:29:26;;;;;;;;;;;;;;;11.97;23.43;100364.88;4406077;32;34243;-90
2021/03/11 11:31:54;;;;;;;;;;;;;;;12.56;22.95;100357.16;4422568;32;33393;-90
2021/03/11 11:34:22;;;;;;;;;;;;;;;11.44;24.30;100346.19;4397014;32;33827;-89
2021/03/11 11:36:49;;;;;;;;;;;;;;;11.85;23.76;100342.53;4419537;32;34146;-90
2021/03/11 11:39:16;;;;;;;;;;;;;;;12.43;23.05;100338.34;4423050;32;33863;-90
2021/03/11 11:41:44;;;;;;;;;;;;;;;12.97;22.23;100327.12;4416259;32;33056;-89
2021/03/11 11:44:11;;;;;;;;;;;;;;;13.17;22.13;100310.78;4395831;32;33034;-89
2021/03/11 11:46:40;;;;;;;;;;;;;;;13.07;22.21;100305.91;4397291;32;33040;-89
2021/03/11 11:49:08;;;;;;;;;;;;;;;12.65;22.78;100309.84;4396007;32;32916;-91
2021/03/11 11:51:37;;;;;;;;;;;;;;;13.21;22.33;100314.16;4399569;32;32373;-90
2021/03/11 11:54:06;;;;;;;;;;;;;;;12.79;22.65;100305.03;4422894;32;34310;-90
2021/03/11 11:56:33;;;;;;;;;;;;;;;12.62;23.04;100302.09;4396151;32;34096;-90
2021/03/11 11:59:01;;;;;;;;;;;;;;;13.32;22.30;100285.91;4409260;32;34030;-90
2021/03/11 12:01:28;;;;;;;;;;;;;;;13.53;21.78;100288.72;4413051;32;33811;-90
2021/03/11 12:03:56;;;;;;;;;;;;;;;14.25;20.99;100279.16;4395038;32;32611;-90
2021/03/11 12:06:24;;;;;;;;;;;;;;;13.87;21.44;100282.31;4435125;32;33240;-90
2021/03/11 12:08:51;;;;;;;;;;;;;;;14.65;20.60;100278.53;4398323;32;35073;-90
2021/03/11 12:11:19;;;;;;;;;;;;;;;13.87;21.45;100269.22;4395068;32;32301;-90
2021/03/11 12:13:46;;;;;;;;;;;;;;;14.20;21.03;100263.63;4420558;32;34244;-89
2021/03/11 12:16:13;;;;;;;;;;;;;;;13.69;21.49;100260.22;4395259;32;33599;-90
2021/03/11 12:18:41;;;;;;;;;;;;;;;14.38;20.87;100254.19;4410676;32;34136;-90
2021/03/11 12:21:08;;;;;;;;;;;;;;;13.35;21.85;100237.84;4420766;32;34099;-89
2021/03/11 12:23:44;;;;;;;;;;;;;;;13.13;22.18;100241.16;4400498;32;34256;-89
2021/03/11 12:26:11;;;;;;;;;;;;;;;13.56;21.64;100228.41;4410779;32;34883;-90
2021/03/11 12:28:38;;;;;;;;;;;;;;;13.91;21.53;100218.41;4411027;32;33396;-89
2021/03/11 12:31:06;;;;;;;;;;;;;;;13.79;21.52;100221.50;4410979;32;33374;-90
2021/03/11 12:33:34;;;;;;;;;;;;;;;13.93;21.31;100206.09;4436954;32;33686;-89
2021/03/11 12:36:31;;;;;;;;;;;;;;;14.11;21.00;100203.72;4420241;32;33425;-90
2021/03/11 12:39:36;;;;;;;;;;;;;;;13.86;21.25;100212.50;4429355;32;32949;-89
2021/03/11 12:42:05;;;;;;;;;;;;;;;13.15;21.86;100212.34;4396959;32;32525;-89
2021/03/11 12:44:33;;;;;;;;;;;;;;;12.88;22.18;100198.44;4396776;32;34407;-90
2021/03/11 12:47:01;;;;;;;;;;;;;;;12.81;22.47;100200.41;4423302;32;33204;-90
2021/03/11 12:49:28;;;;;;;;;;;;;;;13.33;21.80;100203.00;4424339;32;34395;-90
2021/03/11 12:51:57;;;;;;;;;;;;;;;13.09;21.87;100202.09;4425700;32;33100;-89
2021/03/11 12:54:24;;;;;;;;;;;;;;;13.51;21.59;100186.69;4425430;32;32844;-90